Terminal Aerodrome Forecast
Issued by NWS

Home | Current Version | Previous Version | Text Only | Print | Product List | Glossary On
Versions: 1 2 3 4 5 6 7 8 9 10 11 12 13 14 15 16 17 18 19 20 21 22 23
000
FTUS43 KMQT 171700
TAFCMX
TAF
KCMX 171736Z 1718/1818 01015G21KT 2SM -SHSN OVC013
     FM172100 01015G20KT 4SM -SHSN OVC015
     FM180000 01013KT P6SM BKN020
     FM180100 01011KT P6SM BKN025
     FM180500 02007KT P6SM SCT025=

USA.gov is the U.S. government's official web portal to all federal, state and local government web resources and services.